sensor_id;sensor_type;location;lat;lon;timestamp;pressure;altitude;pressure_sealevel;temperature;humidity
3176;BME280;1599;51.564;6.990;2022-07-18T00:01:58;101851.59;;;17.22;95.21
3176;BME280;1599;51.564;6.990;2022-07-18T00:04:25;101852.63;;;17.16;93.83
3176;BME280;1599;51.564;6.990;2022-07-18T00:06:52;101848.75;;;17.17;94.16
3176;BME280;1599;51.564;6.990;2022-07-18T00:09:18;101846.38;;;17.25;95.32
3176;BME280;1599;51.564;6.990;2022-07-18T00:11:44;101848.25;;;17.20;98.94
3176;BME280;1599;51.564;6.990;2022-07-18T00:14:11;101842.63;;;17.15;100.00
3176;BME280;1599;51.564;6.990;2022-07-18T00:16:37;101842.88;;;17.13;100.00
3176;BME280;1599;51.564;6.990;2022-07-18T00:19:03;101839.72;;;17.05;98.26
3176;BME280;1599;51.564;6.990;2022-07-18T00:21:29;101831.63;;;17.03;100.00
3176;BME280;1599;51.564;6.990;2022-07-18T00:23:55;101834.72;;;17.07;100.00
3176;BME280;1599;51.564;6.990;2022-07-18T00:26:21;101825.72;;;17.00;100.00
3176;BME280;1599;51.564;6.990;2022-07-18T00:28:47;101828.97;;;16.92;100.00
3176;BME280;1599;51.564;6.990;2022-07-18T00:31:12;101825.59;;;16.90;100.00
3176;BME280;1599;51.564;6.990;2022-07-18T00:33:38;101817.78;;;16.87;100.00
3176;BME280;1599;51.564;6.990;2022-07-18T00:36:04;101821.59;;;16.81;100.00
3176;BME280;1599;51.564;6.990;2022-07-18T00:38:30;101818.72;;;16.76;100.00
3176;BME280;1599;51.564;6.990;2022-07-18T00:40:56;101814.34;;;16.80;100.00
3176;BME280;1599;51.564;6.990;2022-07-18T00:43:22;101816.53;;;16.78;99.35
3176;BME280;1599;51.564;6.990;2022-07-18T00:45:49;101813.19;;;16.76;99.58
3176;BME280;1599;51.564;6.990;2022-07-18T00:48:16;101812.34;;;16.75;100.00
3176;BME280;1599;51.564;6.990;2022-07-18T00:50:43;101807.56;;;16.71;100.00
3176;BME280;1599;51.564;6.990;2022-07-18T00:53:10;101806.28;;;16.61;100.00
3176;BME280;1599;51.564;6.990;2022-07-18T00:55:41;101811.34;;;16.64;99.50
3176;BME280;1599;51.564;6.990;2022-07-18T00:58:10;101811.06;;;16.66;100.00
3176;BME280;1599;51.564;6.990;2022-07-18T01:00:37;101811.25;;;16.59;99.54
3176;BME280;1599;51.564;6.990;2022-07-18T01:03:21;101811.53;;;16.58;99.11
3176;BME280;1599;51.564;6.990;2022-07-18T01:05:47;101823.25;;;16.48;99.70
3176;BME280;1599;51.564;6.990;2022-07-18T01:08:13;101808.78;;;16.46;98.58
3176;BME280;1599;51.564;6.990;2022-07-18T01:10:39;101820.59;;;16.53;97.99
3176;BME280;1599;51.564;6.990;2022-07-18T01:13:05;101817.91;;;16.58;98.28
3176;BME280;1599;51.564;6.990;2022-07-18T01:15:31;101818.22;;;16.62;99.04
3176;BME280;1599;51.564;6.990;2022-07-18T01:17:57;101816.22;;;16.57;99.96
3176;BME280;1599;51.564;6.990;2022-07-18T01:20:30;101818.03;;;16.52;100.00
3176;BME280;1599;51.564;6.990;2022-07-18T01:22:58;101813.38;;;16.52;99.50
3176;BME280;1599;51.564;6.990;2022-07-18T01:25:24;101816.72;;;16.54;100.00
3176;BME280;1599;51.564;6.990;2022-07-18T01:27:49;101809.00;;;16.56;100.00
3176;BME280;1599;51.564;6.990;2022-07-18T01:30:15;101808.78;;;16.46;100.00
3176;BME280;1599;51.564;6.990;2022-07-18T01:32:44;101802.59;;;16.39;100.00
3176;BME280;1599;51.564;6.990;2022-07-18T01:35:10;101797.03;;;16.39;100.00
3176;BME280;1599;51.564;6.990;2022-07-18T01:37:36;101804.25;;;16.40;100.00
3176;BME280;1599;51.564;6.990;2022-07-18T01:40:07;101790.50;;;16.29;100.00
3176;BME280;1599;51.564;6.990;2022-07-18T01:42:33;101788.44;;;16.24;100.00
3176;BME280;1599;51.564;6.990;2022-07-18T01:44:59;101802.22;;;16.19;100.00
3176;BME280;1599;51.564;6.990;2022-07-18T01:47:25;101796.59;;;16.14;100.00
3176;BME280;1599;51.564;6.990;2022-07-18T01:49:51;101794.44;;;16.16;100.00
3176;BME280;1599;51.564;6.990;2022-07-18T01:52:16;101797.72;;;16.13;100.00
3176;BME280;1599;51.564;6.990;2022-07-18T01:54:42;101796.50;;;16.09;100.00
3176;BME280;1599;51.564;6.990;2022-07-18T01:57:08;101786.09;;;15.99;100.00
3176;BME280;1599;51.564;6.990;2022-07-18T01:59:35;101789.72;;;16.00;100.00
3176;BME280;1599;51.564;6.990;2022-07-18T02:02:04;101791.91;;;15.98;100.00
3176;BME280;1599;51.564;6.990;2022-07-18T02:04:30;101796.16;;;15.89;100.00
3176;BME280;1599;51.564;6.990;2022-07-18T02:07:14;101799.44;;;15.86;100.00
3176;BME280;1599;51.564;6.990;2022-07-18T02:09:40;101791.09;;;15.86;100.00
3176;BME280;1599;51.564;6.990;2022-07-18T02:12:06;101791.47;;;15.89;100.00
3176;BME280;1599;51.564;6.990;2022-07-18T02:14:32;101797.41;;;15.81;100.00
3176;BME280;1599;51.564;6.990;2022-07-18T02:16:58;101797.53;;;15.75;100.00
3176;BME280;1599;51.564;6.990;2022-07-18T02:19:23;101790.34;;;15.74;100.00
3176;BME280;1599;51.564;6.990;2022-07-18T02:21:49;101784.22;;;15.72;100.00
3176;BME280;1599;51.564;6.990;2022-07-18T02:24:15;101785.78;;;15.68;100.00
3176;BME280;1599;51.564;6.990;2022-07-18T02:26:41;101787.38;;;15.64;100.00
3176;BME280;1599;51.564;6.990;2022-07-18T02:29:06;101774.50;;;15.58;100.00
3176;BME280;1599;51.564;6.990;2022-07-18T02:31:32;101776.44;;;15.57;100.00
3176;BME280;1599;51.564;6.990;2022-07-18T02:33:58;101777.78;;;15.55;100.00
3176;BME280;1599;51.564;6.990;2022-07-18T02:36:24;101768.38;;;15.56;100.00
3176;BME280;1599;51.564;6.990;2022-07-18T02:38:49;101768.19;;;15.46;100.00
3176;BME280;1599;51.564;6.990;2022-07-18T02:41:15;101780.81;;;15.41;100.00
3176;BME280;1599;51.564;6.990;2022-07-18T02:43:41;101785.63;;;15.46;100.00
3176;BME280;1599;51.564;6.990;2022-07-18T02:46:07;101782.25;;;15.44;100.00
3176;BME280;1599;51.564;6.990;2022-07-18T02:48:32;101788.63;;;15.44;100.00
3176;BME280;1599;51.564;6.990;2022-07-18T02:50:58;101784.06;;;15.38;100.00
3176;BME280;1599;51.564;6.990;2022-07-18T02:53:24;101778.53;;;15.38;100.00
3176;BME280;1599;51.564;6.990;2022-07-18T02:55:50;101781.41;;;15.43;100.00
3176;BME280;1599;51.564;6.990;2022-07-18T02:58:17;101783.47;;;15.36;100.00
3176;BME280;1599;51.564;6.990;2022-07-18T03:00:43;101782.53;;;15.31;100.00
3176;BME280;1599;51.564;6.990;2022-07-18T03:03:09;101781.69;;;15.30;100.00
3176;BME280;1599;51.564;6.990;2022-07-18T03:05:35;101777.34;;;15.34;100.00
3176;BME280;1599;51.564;6.990;2022-07-18T03:08:00;101766.75;;;15.31;100.00
3176;BME280;1599;51.564;6.990;2022-07-18T03:10:26;101779.91;;;15.24;100.00
3176;BME280;1599;51.564;6.990;2022-07-18T03:12:52;101781.00;;;15.23;100.00
3176;BME280;1599;51.564;6.990;2022-07-18T03:15:18;101782.31;;;15.21;100.00
3176;BME280;1599;51.564;6.990;2022-07-18T03:17:43;101769.91;;;15.23;100.00
3176;BME280;1599;51.564;6.990;2022-07-18T03:20:10;101764.06;;;15.20;100.00
3176;BME280;1599;51.564;6.990;2022-07-18T03:22:36;101761.31;;;15.08;100.00
3176;BME280;1599;51.564;6.990;2022-07-18T03:25:01;101763.81;;;15.10;100.00
3176;BME280;1599;51.564;6.990;2022-07-18T03:27:27;101766.84;;;15.08;100.00
3176;BME280;1599;51.564;6.990;2022-07-18T03:29:53;101769.50;;;15.03;100.00
3176;BME280;1599;51.564;6.990;2022-07-18T03:32:19;101771.69;;;15.01;100.00
3176;BME280;1599;51.564;6.990;2022-07-18T03:34:45;101771.69;;;15.01;100.00
3176;BME280;1599;51.564;6.990;2022-07-18T03:37:11;101775.53;;;15.00;100.00
3176;BME280;1599;51.564;6.990;2022-07-18T03:39:36;101777.31;;;14.95;100.00
3176;BME280;1599;51.564;6.990;2022-07-18T03:42:02;101777.63;;;14.70;100.00
3176;BME280;1599;51.564;6.990;2022-07-18T03:44:28;101767.38;;;14.82;100.00
3176;BME280;1599;51.564;6.990;2022-07-18T03:46:54;101781.78;;;14.84;100.00
3176;BME280;1599;51.564;6.990;2022-07-18T03:49:20;101775.56;;;14.89;100.00
3176;BME280;1599;51.564;6.990;2022-07-18T03:51:46;101778.31;;;14.89;100.00
3176;BME280;1599;51.564;6.990;2022-07-18T03:54:12;101773.13;;;14.92;100.00
3176;BME280;1599;51.564;6.990;2022-07-18T03:56:38;101784.31;;;14.97;100.00
3176;BME280;1599;51.564;6.990;2022-07-18T03:59:04;101771.31;;;14.98;100.00
3176;BME280;1599;51.564;6.990;2022-07-18T04:01:30;101769.97;;;15.00;100.00
3176;BME280;1599;51.564;6.990;2022-07-18T04:03:56;101764.44;;;15.00;100.00
3176;BME280;1599;51.564;6.990;2022-07-18T04:06:21;101774.19;;;15.03;100.00
3176;BME280;1599;51.564;6.990;2022-07-18T04:08:58;101769.00;;;15.06;100.00
3176;BME280;1599;51.564;6.990;2022-07-18T04:11:24;101770.19;;;15.10;100.00
3176;BME280;1599;51.564;6.990;2022-07-18T04:13:55;101766.09;;;15.13;100.00
3176;BME280;1599;51.564;6.990;2022-07-18T04:16:21;101767.53;;;15.15;100.00
3176;BME280;1599;51.564;6.990;2022-07-18T04:18:47;101763.78;;;15.21;100.00
3176;BME280;1599;51.564;6.990;2022-07-18T04:21:14;101769.44;;;15.26;100.00
3176;BME280;1599;51.564;6.990;2022-07-18T04:23:40;101770.59;;;15.30;100.00
3176;BME280;1599;51.564;6.990;2022-07-18T04:26:06;101770.13;;;15.33;100.00
3176;BME280;1599;51.564;6.990;2022-07-18T04:28:33;101773.50;;;15.35;100.00
3176;BME280;1599;51.564;6.990;2022-07-18T04:30:58;101766.97;;;15.41;100.00
3176;BME280;1599;51.564;6.990;2022-07-18T04:33:24;101773.25;;;15.49;100.00
3176;BME280;1599;51.564;6.990;2022-07-18T04:35:56;101770.56;;;15.54;100.00
3176;BME280;1599;51.564;6.990;2022-07-18T04:38:22;101773.09;;;15.55;100.00
3176;BME280;1599;51.564;6.990;2022-07-18T04:40:48;101773.94;;;15.56;100.00
3176;BME280;1599;51.564;6.990;2022-07-18T04:43:14;101775.44;;;15.63;100.00
3176;BME280;1599;51.564;6.990;2022-07-18T04:45:40;101770.28;;;15.67;100.00
3176;BME280;1599;51.564;6.990;2022-07-18T04:48:06;101770.94;;;15.74;100.00
3176;BME280;1599;51.564;6.990;2022-07-18T04:50:33;101767.78;;;15.82;100.00
3176;BME280;1599;51.564;6.990;2022-07-18T04:52:59;101774.00;;;15.89;100.00
3176;BME280;1599;51.564;6.990;2022-07-18T04:55:25;101774.75;;;16.01;100.00
3176;BME280;1599;51.564;6.990;2022-07-18T04:57:52;101771.16;;;16.17;100.00
3176;BME280;1599;51.564;6.990;2022-07-18T05:00:23;101767.44;;;16.28;100.00
3176;BME280;1599;51.564;6.990;2022-07-18T05:02:52;101765.91;;;16.37;100.00
3176;BME280;1599;51.564;6.990;2022-07-18T05:05:19;101759.38;;;16.43;100.00
3176;BME280;1599;51.564;6.990;2022-07-18T05:07:46;101760.16;;;16.55;100.00
3176;BME280;1599;51.564;6.990;2022-07-18T05:10:14;101765.25;;;16.63;100.00
3176;BME280;1599;51.564;6.990;2022-07-18T05:12:43;101760.94;;;16.73;100.00
3176;BME280;1599;51.564;6.990;2022-07-18T05:15:12;101753.28;;;16.80;100.00
3176;BME280;1599;51.564;6.990;2022-07-18T05:17:39;101752.31;;;16.91;100.00
3176;BME280;1599;51.564;6.990;2022-07-18T05:20:08;101746.31;;;16.99;100.00
3176;BME280;1599;51.564;6.990;2022-07-18T05:22:35;101739.88;;;17.15;100.00
3176;BME280;1599;51.564;6.990;2022-07-18T05:25:03;101735.06;;;17.32;100.00
3176;BME280;1599;51.564;6.990;2022-07-18T05:27:29;101742.41;;;17.43;100.00
3176;BME280;1599;51.564;6.990;2022-07-18T05:29:55;101735.22;;;17.47;100.00
3176;BME280;1599;51.564;6.990;2022-07-18T05:32:21;101739.31;;;17.61;100.00
3176;BME280;1599;51.564;6.990;2022-07-18T05:34:47;101741.09;;;17.72;100.00
3176;BME280;1599;51.564;6.990;2022-07-18T05:37:13;101741.75;;;17.84;100.00
3176;BME280;1599;51.564;6.990;2022-07-18T05:39:39;101738.25;;;17.99;100.00
3176;BME280;1599;51.564;6.990;2022-07-18T05:42:05;101740.59;;;18.12;100.00
3176;BME280;1599;51.564;6.990;2022-07-18T05:44:30;101725.97;;;18.27;100.00
3176;BME280;1599;51.564;6.990;2022-07-18T05:46:56;101737.78;;;18.44;100.00
3176;BME280;1599;51.564;6.990;2022-07-18T05:49:22;101730.13;;;18.56;100.00
3176;BME280;1599;51.564;6.990;2022-07-18T05:51:48;101730.19;;;18.66;100.00
3176;BME280;1599;51.564;6.990;2022-07-18T05:54:14;101737.44;;;18.77;99.85
3176;BME280;1599;51.564;6.990;2022-07-18T05:56:48;101723.00;;;18.85;100.00
3176;BME280;1599;51.564;6.990;2022-07-18T05:59:16;101726.97;;;18.94;100.00
3176;BME280;1599;51.564;6.990;2022-07-18T06:01:42;101715.88;;;19.04;99.42
3176;BME280;1599;51.564;6.990;2022-07-18T06:04:08;101717.59;;;19.16;95.44
3176;BME280;1599;51.564;6.990;2022-07-18T06:06:34;101717.09;;;19.34;93.27
3176;BME280;1599;51.564;6.990;2022-07-18T06:09:00;101709.88;;;19.43;92.44
3176;BME280;1599;51.564;6.990;2022-07-18T06:11:25;101704.91;;;19.55;89.85
3176;BME280;1599;51.564;6.990;2022-07-18T06:13:51;101713.56;;;19.68;89.90
3176;BME280;1599;51.564;6.990;2022-07-18T06:16:17;101708.28;;;19.77;88.35
3176;BME280;1599;51.564;6.990;2022-07-18T06:18:43;101710.50;;;19.85;86.63
3176;BME280;1599;51.564;6.990;2022-07-18T06:21:08;101710.50;;;20.00;84.98
3176;BME280;1599;51.564;6.990;2022-07-18T06:23:34;101713.31;;;20.20;82.92
3176;BME280;1599;51.564;6.990;2022-07-18T06:26:02;101712.47;;;20.40;81.22
3176;BME280;1599;51.564;6.990;2022-07-18T06:28:28;101716.59;;;20.58;80.82
3176;BME280;1599;51.564;6.990;2022-07-18T06:33:55;101714.22;;;21.10;80.32
3176;BME280;1599;51.564;6.990;2022-07-18T06:36:21;101714.13;;;21.30;77.64
3176;BME280;1599;51.564;6.990;2022-07-18T06:38:50;101711.72;;;21.58;77.47
3176;BME280;1599;51.564;6.990;2022-07-18T06:41:18;101712.91;;;21.85;76.77
3176;BME280;1599;51.564;6.990;2022-07-18T06:43:44;101706.00;;;22.11;72.84
3176;BME280;1599;51.564;6.990;2022-07-18T06:46:10;101703.00;;;22.32;72.84
3176;BME280;1599;51.564;6.990;2022-07-18T06:48:36;101711.75;;;22.54;74.46
3176;BME280;1599;51.564;6.990;2022-07-18T06:51:04;101704.38;;;22.68;70.55
3176;BME280;1599;51.564;6.990;2022-07-18T06:53:32;101699.94;;;22.86;68.90
3176;BME280;1599;51.564;6.990;2022-07-18T06:55:59;101694.31;;;23.09;64.33
3176;BME280;1599;51.564;6.990;2022-07-18T06:58:24;101694.28;;;23.33;65.93
3176;BME280;1599;51.564;6.990;2022-07-18T07:00:51;101693.41;;;23.56;66.09
3176;BME280;1599;51.564;6.990;2022-07-18T07:03:17;101693.69;;;23.73;66.74
3176;BME280;1599;51.564;6.990;2022-07-18T07:05:43;101698.50;;;23.86;65.36
3176;BME280;1599;51.564;6.990;2022-07-18T07:08:08;101695.00;;;23.94;62.98
3176;BME280;1599;51.564;6.990;2022-07-18T07:10:34;101689.84;;;24.02;63.35
3176;BME280;1599;51.564;6.990;2022-07-18T07:13:00;101686.94;;;24.07;59.78
3176;BME280;1599;51.564;6.990;2022-07-18T07:15:26;101696.59;;;24.19;63.13
3176;BME280;1599;51.564;6.990;2022-07-18T07:17:52;101691.00;;;24.33;61.57
3176;BME280;1599;51.564;6.990;2022-07-18T07:20:18;101691.25;;;24.50;63.45
3176;BME280;1599;51.564;6.990;2022-07-18T07:22:49;101697.59;;;24.69;60.77
3176;BME280;1599;51.564;6.990;2022-07-18T07:25:17;101688.69;;;24.81;55.51
3176;BME280;1599;51.564;6.990;2022-07-18T07:27:43;101686.50;;;24.91;58.40
3176;BME280;1599;51.564;6.990;2022-07-18T07:30:10;101686.06;;;25.11;62.92
3176;BME280;1599;51.564;6.990;2022-07-18T07:32:39;101685.81;;;25.22;62.87
3176;BME280;1599;51.564;6.990;2022-07-18T07:35:07;101685.91;;;25.44;62.53
3176;BME280;1599;51.564;6.990;2022-07-18T07:37:36;101678.66;;;25.65;60.13
3176;BME280;1599;51.564;6.990;2022-07-18T07:40:02;101666.78;;;25.68;57.95
3176;BME280;1599;51.564;6.990;2022-07-18T07:42:28;101673.94;;;25.96;52.10
3176;BME280;1599;51.564;6.990;2022-07-18T07:44:54;101671.13;;;26.18;55.31
3176;BME280;1599;51.564;6.990;2022-07-18T07:47:20;101667.88;;;26.33;52.61
3176;BME280;1599;51.564;6.990;2022-07-18T07:49:46;101676.94;;;26.53;56.20
3176;BME280;1599;51.564;6.990;2022-07-18T07:52:12;101672.59;;;26.47;46.85
3176;BME280;1599;51.564;6.990;2022-07-18T07:54:40;101674.00;;;26.58;55.82
3176;BME280;1599;51.564;6.990;2022-07-18T07:57:06;101665.38;;;26.63;54.44
3176;BME280;1599;51.564;6.990;2022-07-18T07:59:31;101660.59;;;26.32;59.87
3176;BME280;1599;51.564;6.990;2022-07-18T08:02:00;101653.47;;;26.66;53.59
3176;BME280;1599;51.564;6.990;2022-07-18T08:04:26;101658.31;;;26.74;53.60
3176;BME280;1599;51.564;6.990;2022-07-18T08:06:52;101657.03;;;26.80;55.83
3176;BME280;1599;51.564;6.990;2022-07-18T08:09:18;101655.56;;;26.91;53.04
3176;BME280;1599;51.564;6.990;2022-07-18T08:11:44;101654.09;;;27.02;53.00
3176;BME280;1599;51.564;6.990;2022-07-18T08:14:09;101653.94;;;27.07;48.88
3176;BME280;1599;51.564;6.990;2022-07-18T08:16:35;101647.50;;;27.32;49.87
3176;BME280;1599;51.564;6.990;2022-07-18T08:19:01;101646.72;;;27.58;52.24
3176;BME280;1599;51.564;6.990;2022-07-18T08:21:27;101650.38;;;27.84;48.10
3176;BME280;1599;51.564;6.990;2022-07-18T08:23:53;101651.66;;;28.12;49.92
3176;BME280;1599;51.564;6.990;2022-07-18T08:26:18;101651.28;;;28.31;47.89
3176;BME280;1599;51.564;6.990;2022-07-18T08:28:44;101650.16;;;28.23;44.09
3176;BME280;1599;51.564;6.990;2022-07-18T08:31:10;101646.22;;;28.53;45.93
3176;BME280;1599;51.564;6.990;2022-07-18T08:33:36;101653.00;;;28.61;48.20
3176;BME280;1599;51.564;6.990;2022-07-18T08:36:02;101655.16;;;28.72;44.14
3176;BME280;1599;51.564;6.990;2022-07-18T08:38:28;101661.78;;;28.76;43.90
3176;BME280;1599;51.564;6.990;2022-07-18T08:40:54;101645.34;;;28.70;44.31
3176;BME280;1599;51.564;6.990;2022-07-18T08:43:27;101644.22;;;28.54;39.77
3176;BME280;1599;51.564;6.990;2022-07-18T08:46:04;101649.31;;;28.69;42.82
3176;BME280;1599;51.564;6.990;2022-07-18T08:48:31;101646.75;;;28.85;42.67
3176;BME280;1599;51.564;6.990;2022-07-18T08:51:01;101645.00;;;29.01;42.41
3176;BME280;1599;51.564;6.990;2022-07-18T08:53:31;101645.91;;;29.22;40.03
3176;BME280;1599;51.564;6.990;2022-07-18T08:55:59;101651.16;;;29.32;38.42
3176;BME280;1599;51.564;6.990;2022-07-18T08:58:25;101645.31;;;29.49;39.18
3176;BME280;1599;51.564;6.990;2022-07-18T09:00:51;101643.41;;;29.62;41.20
3176;BME280;1599;51.564;6.990;2022-07-18T09:03:17;101636.28;;;29.76;42.08
3176;BME280;1599;51.564;6.990;2022-07-18T09:05:43;101640.84;;;29.48;42.55
3176;BME280;1599;51.564;6.990;2022-07-18T09:08:18;101640.25;;;29.75;39.15
3176;BME280;1599;51.564;6.990;2022-07-18T09:10:50;101639.53;;;29.66;38.71
3176;BME280;1599;51.564;6.990;2022-07-18T09:13:18;101642.13;;;29.80;37.10
3176;BME280;1599;51.564;6.990;2022-07-18T09:16:10;101638.69;;;29.86;37.83
3176;BME280;1599;51.564;6.990;2022-07-18T09:18:46;101637.53;;;29.87;38.00
3176;BME280;1599;51.564;6.990;2022-07-18T09:21:22;101640.38;;;29.87;37.71
3176;BME280;1599;51.564;6.990;2022-07-18T09:23:51;101643.72;;;30.02;43.32
3176;BME280;1599;51.564;6.990;2022-07-18T09:26:43;101641.16;;;30.09;37.94
3176;BME280;1599;51.564;6.990;2022-07-18T09:29:16;101636.88;;;30.03;40.20
3176;BME280;1599;51.564;6.990;2022-07-18T09:31:51;101634.28;;;30.10;38.74
3176;BME280;1599;51.564;6.990;2022-07-18T09:34:35;101626.16;;;30.20;34.77
3176;BME280;1599;51.564;6.990;2022-07-18T09:37:02;101630.31;;;30.23;35.43
3176;BME280;1599;51.564;6.990;2022-07-18T09:39:28;101627.94;;;30.25;39.26
3176;BME280;1599;51.564;6.990;2022-07-18T09:42:13;101623.88;;;30.02;37.85
3176;BME280;1599;51.564;6.990;2022-07-18T09:44:39;101630.88;;;30.16;35.82
3176;BME280;1599;51.564;6.990;2022-07-18T09:47:05;101620.34;;;30.17;37.54
3176;BME280;1599;51.564;6.990;2022-07-18T09:49:33;101626.53;;;30.19;34.15
3176;BME280;1599;51.564;6.990;2022-07-18T09:52:09;101623.84;;;29.89;35.60
3176;BME280;1599;51.564;6.990;2022-07-18T09:54:44;101628.00;;;30.04;35.17
3176;BME280;1599;51.564;6.990;2022-07-18T09:57:26;101629.69;;;30.17;37.64
3176;BME280;1599;51.564;6.990;2022-07-18T09:59:52;101629.59;;;30.26;33.06
3176;BME280;1599;51.564;6.990;2022-07-18T10:02:18;101620.16;;;30.22;34.48
3176;BME280;1599;51.564;6.990;2022-07-18T10:04:44;101629.41;;;30.43;34.74
3176;BME280;1599;51.564;6.990;2022-07-18T10:07:10;101627.69;;;30.18;37.88
3176;BME280;1599;51.564;6.990;2022-07-18T10:09:38;101624.34;;;30.36;36.86
3176;BME280;1599;51.564;6.990;2022-07-18T10:12:05;101625.53;;;30.47;36.95
3176;BME280;1599;51.564;6.990;2022-07-18T10:14:32;101627.31;;;30.52;38.21
3176;BME280;1599;51.564;6.990;2022-07-18T10:16:59;101624.94;;;30.54;33.89
3176;BME280;1599;51.564;6.990;2022-07-18T10:19:26;101629.91;;;30.57;34.26
3176;BME280;1599;51.564;6.990;2022-07-18T10:21:53;101630.16;;;30.40;33.59
3176;BME280;1599;51.564;6.990;2022-07-18T10:24:20;101629.19;;;30.48;31.93
3176;BME280;1599;51.564;6.990;2022-07-18T10:27:19;101635.13;;;30.67;33.63
3176;BME280;1599;51.564;6.990;2022-07-18T10:30:11;101634.19;;;30.63;33.58
3176;BME280;1599;51.564;6.990;2022-07-18T10:32:38;101635.34;;;30.74;34.61
3176;BME280;1599;51.564;6.990;2022-07-18T10:35:05;101633.22;;;30.59;29.73
3176;BME280;1599;51.564;6.990;2022-07-18T10:37:36;101630.28;;;30.68;33.31
3176;BME280;1599;51.564;6.990;2022-07-18T10:40:29;101622.56;;;30.56;31.69
3176;BME280;1599;51.564;6.990;2022-07-18T10:45:56;101619.50;;;30.73;31.08
3176;BME280;1599;51.564;6.990;2022-07-18T10:51:14;101624.47;;;30.88;33.40
3176;BME280;1599;51.564;6.990;2022-07-18T10:59:17;101620.09;;;30.79;32.64
3176;BME280;1599;51.564;6.990;2022-07-18T11:01:53;101620.47;;;30.89;33.37
3176;BME280;1599;51.564;6.990;2022-07-18T11:04:35;101616.69;;;30.97;33.55
3176;BME280;1599;51.564;6.990;2022-07-18T11:07:14;101621.88;;;30.83;30.82
3176;BME280;1599;51.564;6.990;2022-07-18T11:09:47;101620.72;;;30.96;34.13
3176;BME280;1599;51.564;6.990;2022-07-18T11:15:17;101615.50;;;30.86;32.49
3176;BME280;1599;51.564;6.990;2022-07-18T11:18:03;101608.03;;;31.06;30.69
3176;BME280;1599;51.564;6.990;2022-07-18T11:20:42;101599.38;;;31.14;32.53
3176;BME280;1599;51.564;6.990;2022-07-18T11:23:24;101597.00;;;31.16;31.66
3176;BME280;1599;51.564;6.990;2022-07-18T11:25:55;101596.28;;;31.20;33.46
3176;BME280;1599;51.564;6.990;2022-07-18T11:28:22;101585.63;;;31.16;34.34
3176;BME280;1599;51.564;6.990;2022-07-18T11:31:06;101592.28;;;31.21;32.89
3176;BME280;1599;51.564;6.990;2022-07-18T11:33:44;101585.84;;;31.24;32.19
3176;BME280;1599;51.564;6.990;2022-07-18T11:36:17;101577.09;;;31.29;32.10
3176;BME280;1599;51.564;6.990;2022-07-18T11:38:56;101576.59;;;31.39;33.27
3176;BME280;1599;51.564;6.990;2022-07-18T11:41:23;101578.34;;;31.43;33.44
3176;BME280;1599;51.564;6.990;2022-07-18T11:43:51;101575.13;;;31.45;32.02
3176;BME280;1599;51.564;6.990;2022-07-18T11:46:20;101577.75;;;31.50;32.57
3176;BME280;1599;51.564;6.990;2022-07-18T11:48:49;101574.63;;;31.55;32.73
3176;BME280;1599;51.564;6.990;2022-07-18T11:51:22;101570.03;;;31.62;32.00
3176;BME280;1599;51.564;6.990;2022-07-18T11:53:51;101562.03;;;31.68;32.32
3176;BME280;1599;51.564;6.990;2022-07-18T11:56:20;101565.34;;;31.70;32.36
3176;BME280;1599;51.564;6.990;2022-07-18T11:58:48;101571.03;;;31.70;28.41
3176;BME280;1599;51.564;6.990;2022-07-18T12:01:15;101555.84;;;31.78;28.07
3176;BME280;1599;51.564;6.990;2022-07-18T12:03:49;101553.03;;;31.66;28.84
3176;BME280;1599;51.564;6.990;2022-07-18T12:06:22;101548.69;;;31.84;31.33
3176;BME280;1599;51.564;6.990;2022-07-18T12:08:52;101554.31;;;31.96;33.15
3176;BME280;1599;51.564;6.990;2022-07-18T12:14:00;101545.16;;;32.18;31.03
3176;BME280;1599;51.564;6.990;2022-07-18T12:16:42;101550.97;;;31.94;32.51
3176;BME280;1599;51.564;6.990;2022-07-18T12:19:20;101544.06;;;32.23;30.77
3176;BME280;1599;51.564;6.990;2022-07-18T12:24:53;101537.72;;;32.29;30.70
3176;BME280;1599;51.564;6.990;2022-07-18T12:30:18;101539.59;;;32.53;31.97
3176;BME280;1599;51.564;6.990;2022-07-18T12:32:56;101537.56;;;32.54;32.99
3176;BME280;1599;51.564;6.990;2022-07-18T12:35:27;101527.81;;;32.55;31.48
3176;BME280;1599;51.564;6.990;2022-07-18T12:37:57;101530.66;;;32.55;30.53
3176;BME280;1599;51.564;6.990;2022-07-18T12:40:26;101527.97;;;32.62;33.29
3176;BME280;1599;51.564;6.990;2022-07-18T12:43:09;101523.38;;;32.73;32.83
3176;BME280;1599;51.564;6.990;2022-07-18T12:45:36;101527.59;;;32.79;31.60
3176;BME280;1599;51.564;6.990;2022-07-18T12:48:04;101510.75;;;32.89;32.61
3176;BME280;1599;51.564;6.990;2022-07-18T12:50:30;101518.16;;;32.94;31.24
3176;BME280;1599;51.564;6.990;2022-07-18T12:52:57;101512.84;;;32.92;29.44
3176;BME280;1599;51.564;6.990;2022-07-18T12:55:24;101513.44;;;33.02;30.66
3176;BME280;1599;51.564;6.990;2022-07-18T12:57:50;101515.47;;;33.01;32.30
3176;BME280;1599;51.564;6.990;2022-07-18T13:00:16;101504.72;;;33.10;31.29
3176;BME280;1599;51.564;6.990;2022-07-18T13:02:43;101505.91;;;33.09;28.34
3176;BME280;1599;51.564;6.990;2022-07-18T13:05:09;101507.41;;;33.22;31.07
3176;BME280;1599;51.564;6.990;2022-07-18T13:07:35;101504.13;;;33.20;28.99
3176;BME280;1599;51.564;6.990;2022-07-18T13:10:01;101506.06;;;33.35;25.74
3176;BME280;1599;51.564;6.990;2022-07-18T13:12:27;101503.34;;;33.04;25.22
3176;BME280;1599;51.564;6.990;2022-07-18T13:14:53;101495.09;;;33.37;26.83
3176;BME280;1599;51.564;6.990;2022-07-18T13:17:19;101495.94;;;33.57;27.22
3176;BME280;1599;51.564;6.990;2022-07-18T13:19:44;101488.66;;;33.60;31.54
3176;BME280;1599;51.564;6.990;2022-07-18T13:22:11;101496.78;;;33.58;31.08
3176;BME280;1599;51.564;6.990;2022-07-18T13:24:37;101483.97;;;33.71;30.43
3176;BME280;1599;51.564;6.990;2022-07-18T13:27:04;101482.63;;;33.87;27.78
3176;BME280;1599;51.564;6.990;2022-07-18T13:29:30;101484.59;;;33.61;26.69
3176;BME280;1599;51.564;6.990;2022-07-18T13:31:56;101483.03;;;33.63;27.28
3176;BME280;1599;51.564;6.990;2022-07-18T13:34:22;101475.59;;;34.04;29.13
3176;BME280;1599;51.564;6.990;2022-07-18T13:36:50;101471.88;;;34.23;27.29
3176;BME280;1599;51.564;6.990;2022-07-18T13:39:17;101476.09;;;34.32;25.85